createdAt,value
2023-04-24T00:01:44.064Z,99779.00
2023-04-24T00:04:12.005Z,99779.06
2023-04-24T00:06:39.619Z,99773.66
2023-04-24T00:09:06.039Z,99765.88
2023-04-24T00:11:32.440Z,99763.94
2023-04-24T00:13:59.406Z,99763.34
2023-04-24T00:16:25.931Z,99764.16
2023-04-24T00:18:53.676Z,99756.25
2023-04-24T00:21:20.121Z,99750.84
2023-04-24T00:23:46.544Z,99757.81
2023-04-24T00:26:12.956Z,99749.09
2023-04-24T00:28:39.435Z,99746.41
2023-04-24T00:31:05.873Z,99741.00
2023-04-24T00:33:32.234Z,99743.72
2023-04-24T00:35:58.790Z,99731.63
2023-04-24T00:38:25.463Z,99737.28
2023-04-24T00:40:52.060Z,99729.63
2023-04-24T00:43:18.450Z,99726.97
2023-04-24T00:45:44.962Z,99728.69
2023-04-24T00:48:12.767Z,99721.03
2023-04-24T00:50:40.106Z,99711.06
2023-04-24T00:53:07.137Z,99709.31
2023-04-24T00:55:33.570Z,99705.13
2023-04-24T00:58:00.432Z,99704.13
2023-04-24T01:00:27.616Z,99699.81
2023-04-24T01:02:54.274Z,99694.31
2023-04-24T01:05:20.719Z,99692.06
2023-04-24T01:07:49.236Z,99710.41
2023-04-24T01:10:16.646Z,99719.00
2023-04-24T01:12:43.018Z,99720.97
2023-04-24T01:15:10.113Z,99717.38
2023-04-24T01:17:36.892Z,99718.28
2023-04-24T01:20:06.927Z,99712.72
2023-04-24T01:22:36.442Z,99714.91
2023-04-24T01:25:04.602Z,99717.13
2023-04-24T01:27:31.360Z,99711.13
2023-04-24T01:29:57.827Z,99706.78
2023-04-24T01:32:25.431Z,99708.72
2023-04-24T01:34:52.121Z,99703.63
2023-04-24T01:37:18.510Z,99698.03
2023-04-24T01:39:45.121Z,99703.50
2023-04-24T01:42:13.037Z,99691.94
2023-04-24T01:44:39.510Z,99696.41
2023-04-24T01:47:06.538Z,99700.75
2023-04-24T01:49:33.768Z,99698.13
2023-04-24T01:52:00.493Z,99686.78
2023-04-24T01:54:26.846Z,99691.13
2023-04-24T01:56:53.207Z,99676.13
2023-04-24T01:59:22.540Z,99678.88
2023-04-24T02:01:48.926Z,99668.03
2023-04-24T02:04:16.413Z,99677.06
2023-04-24T02:06:42.935Z,99681.56
2023-04-24T02:09:09.300Z,99681.78
2023-04-24T02:11:35.673Z,99683.00
2023-04-24T02:14:02.096Z,99669.63
2023-04-24T02:16:33.140Z,99669.00
2023-04-24T02:18:59.690Z,99674.25
2023-04-24T02:21:26.386Z,99663.91
2023-04-24T02:23:52.759Z,99662.03
2023-04-24T02:26:19.522Z,99656.97
2023-04-24T02:28:45.885Z,99661.19
2023-04-24T02:31:12.281Z,99669.97
2023-04-24T02:33:38.674Z,99666.56
2023-04-24T02:36:05.084Z,99668.31
2023-04-24T02:38:31.438Z,99658.06
2023-04-24T02:40:57.815Z,99658.97
2023-04-24T02:43:24.280Z,99666.59
2023-04-24T02:45:50.675Z,99659.47
2023-04-24T02:48:17.989Z,99663.00
2023-04-24T02:50:45.843Z,99666.50
2023-04-24T02:53:12.233Z,99658.69
2023-04-24T02:55:38.652Z,99659.59
2023-04-24T02:58:05.029Z,99656.84
2023-04-24T03:00:31.390Z,99646.19
2023-04-24T03:02:58.062Z,99650.56
2023-04-24T03:05:24.788Z,99654.91
2023-04-24T03:07:53.561Z,99660.22
2023-04-24T03:10:20.033Z,99660.22
2023-04-24T03:12:46.420Z,99663.72
2023-04-24T03:15:12.778Z,99663.00
2023-04-24T03:17:39.243Z,99670.13
2023-04-24T03:20:06.794Z,99674.28
2023-04-24T03:22:33.938Z,99671.09
2023-04-24T03:25:00.434Z,99670.81
2023-04-24T03:27:26.938Z,99671.88
2023-04-24T03:29:56.130Z,99667.41
2023-04-24T03:32:23.631Z,99664.78
2023-04-24T03:34:50.919Z,99658.59
2023-04-24T03:37:17.747Z,99662.97
2023-04-24T03:39:44.515Z,99660.28
2023-04-24T03:42:11.050Z,99667.63
2023-04-24T03:44:37.509Z,99666.63
2023-04-24T03:47:03.994Z,99677.03
2023-04-24T03:49:30.377Z,99672.50
2023-04-24T03:51:56.758Z,99669.16
2023-04-24T03:54:23.113Z,99662.16
2023-04-24T03:56:49.537Z,99659.50
2023-04-24T03:59:15.993Z,99664.91
2023-04-24T04:01:44.004Z,99665.84
2023-04-24T04:04:10.811Z,99680.53
2023-04-24T04:06:37.340Z,99662.25
2023-04-24T04:09:04.156Z,99665.63
2023-04-24T04:11:31.487Z,99658.47
2023-04-24T04:13:57.857Z,99660.25
2023-04-24T04:16:24.342Z,99661.16
2023-04-24T04:18:50.921Z,99655.13
2023-04-24T04:21:17.334Z,99655.97
2023-04-24T04:23:43.687Z,99650.69
2023-04-24T04:26:10.110Z,99649.66
2023-04-24T04:28:36.469Z,99653.97
2023-04-24T04:31:03.203Z,99665.44
2023-04-24T04:33:29.577Z,99651.59
2023-04-24T04:35:57.714Z,99654.97
2023-04-24T04:38:24.228Z,99660.41
2023-04-24T04:40:51.272Z,99662.19
2023-04-24T04:43:17.677Z,99664.03
2023-04-24T04:45:44.387Z,99664.75
2023-04-24T04:48:13.340Z,99672.78
2023-04-24T04:50:39.760Z,99674.41
2023-04-24T04:53:06.535Z,99678.03
2023-04-24T04:55:32.934Z,99677.94
2023-04-24T04:58:01.217Z,99685.13
2023-04-24T05:00:28.260Z,99688.59
2023-04-24T05:02:55.440Z,99681.66
2023-04-24T05:05:23.997Z,99682.50
2023-04-24T05:07:50.360Z,99690.34
2023-04-24T05:10:16.789Z,99693.97
2023-04-24T05:12:45.062Z,99691.97
2023-04-24T05:15:12.728Z,99699.00
2023-04-24T05:17:40.786Z,99696.28
2023-04-24T05:20:07.946Z,99685.78
2023-04-24T05:22:34.439Z,99692.91
2023-04-24T05:25:00.822Z,99701.66
2023-04-24T05:27:27.265Z,99691.28
2023-04-24T05:29:53.690Z,99692.78
2023-04-24T05:32:20.143Z,99700.88
2023-04-24T05:34:46.570Z,99696.63
2023-04-24T05:37:13.059Z,99706.78
2023-04-24T05:39:39.532Z,99699.31
2023-04-24T05:42:06.219Z,99699.00
2023-04-24T05:44:32.714Z,99704.16
2023-04-24T05:46:59.210Z,99707.78
2023-04-24T05:49:25.704Z,99703.38
2023-04-24T05:51:52.072Z,99702.47
2023-04-24T05:54:18.495Z,99700.66
2023-04-24T05:56:44.886Z,99707.66
2023-04-24T05:59:11.282Z,99710.00
2023-04-24T06:01:38.108Z,99719.63
2023-04-24T06:04:05.071Z,99711.47
2023-04-24T06:06:32.249Z,99711.06
2023-04-24T06:09:01.624Z,99716.63
2023-04-24T06:11:28.358Z,99720.56
2023-04-24T06:13:54.737Z,99718.97
2023-04-24T06:16:21.151Z,99724.31
2023-04-24T06:18:48.614Z,99722.28
2023-04-24T06:21:18.928Z,99724.84
2023-04-24T06:23:47.287Z,99736.16
2023-04-24T06:26:13.733Z,99732.78
2023-04-24T06:28:40.273Z,99730.78
2023-04-24T06:31:06.663Z,99731.72
2023-04-24T06:33:33.051Z,99740.41
2023-04-24T06:35:59.493Z,99732.50
2023-04-24T06:38:26.466Z,99729.03
2023-04-24T06:40:52.865Z,99727.59
2023-04-24T06:43:19.295Z,99729.41
2023-04-24T06:45:46.341Z,99734.69
2023-04-24T06:48:12.939Z,99735.66
2023-04-24T06:50:39.369Z,99735.47
2023-04-24T06:53:05.736Z,99725.94
2023-04-24T06:55:32.147Z,99719.78
2023-04-24T06:57:58.531Z,99726.72
2023-04-24T07:00:25.445Z,99716.28
2023-04-24T07:02:51.999Z,99726.78
2023-04-24T07:05:20.844Z,99724.19
2023-04-24T07:07:48.826Z,99724.88
2023-04-24T07:10:15.481Z,99713.59
2023-04-24T07:12:42.879Z,99714.50
2023-04-24T07:15:09.959Z,99724.13
2023-04-24T07:17:36.487Z,99717.16
2023-04-24T07:20:02.944Z,99718.00
2023-04-24T07:22:29.298Z,99721.47
2023-04-24T07:24:55.786Z,99726.69
2023-04-24T07:27:22.194Z,99728.66
2023-04-24T07:29:48.558Z,99723.38
2023-04-24T07:32:14.923Z,99716.25
2023-04-24T07:34:41.495Z,99723.31
2023-04-24T07:37:07.889Z,99720.69
2023-04-24T07:39:34.259Z,99726.84
2023-04-24T07:42:00.839Z,99729.50
2023-04-24T07:44:27.306Z,99724.19
2023-04-24T07:46:53.768Z,99708.31
2023-04-24T07:49:20.357Z,99703.75
2023-04-24T07:51:46.886Z,99713.56
2023-04-24T07:54:13.511Z,99703.50
2023-04-24T07:56:40.309Z,99717.06
2023-04-24T07:59:07.196Z,99728.50
2023-04-24T08:01:33.619Z,99719.50
2023-04-24T08:04:00.276Z,99714.13
2023-04-24T08:06:31.017Z,99709.97
2023-04-24T08:08:57.654Z,99716.88
2023-04-24T08:11:24.964Z,99709.63
2023-04-24T08:13:51.536Z,99708.72
2023-04-24T08:16:18.068Z,99711.38
2023-04-24T08:18:44.490Z,99714.94
2023-04-24T08:21:12.235Z,99723.00
2023-04-24T08:23:38.593Z,99723.09
2023-04-24T08:26:05.173Z,99731.13
2023-04-24T08:28:31.527Z,99718.28
2023-04-24T08:30:57.904Z,99710.56
2023-04-24T08:33:24.988Z,99708.16
2023-04-24T08:35:51.486Z,99704.13
2023-04-24T08:38:18.116Z,99709.84
2023-04-24T08:40:46.888Z,99704.25
2023-04-24T08:43:14.005Z,99711.19
2023-04-24T08:45:40.867Z,99706.22
2023-04-24T08:48:13.681Z,99708.97
2023-04-24T08:50:45.582Z,99713.13
2023-04-24T08:53:12.142Z,99706.47
2023-04-24T08:55:39.670Z,99714.88
2023-04-24T08:58:06.512Z,99710.25
2023-04-24T09:00:33.320Z,99720.13
2023-04-24T09:03:02.546Z,99723.91
2023-04-24T09:05:29.451Z,99715.53
2023-04-24T09:07:57.176Z,99715.16
2023-04-24T09:10:26.245Z,99723.94
2023-04-24T09:12:53.508Z,99715.16
2023-04-24T09:15:21.417Z,99715.34
2023-04-24T09:17:48.419Z,99716.06
2023-04-24T09:20:14.927Z,99722.78
2023-04-24T09:22:42.575Z,99720.00
2023-04-24T09:25:10.200Z,99720.25
2023-04-24T09:27:36.616Z,99721.59
2023-04-24T09:30:03.737Z,99716.78
2023-04-24T09:32:31.179Z,99711.28
2023-04-24T09:35:14.406Z,99724.44
2023-04-24T09:37:46.444Z,99722.16
2023-04-24T09:40:18.314Z,99719.81
2023-04-24T09:42:54.284Z,99723.59
2023-04-24T09:45:21.277Z,99729.47
2023-04-24T09:47:52.736Z,99720.41
2023-04-24T09:50:20.657Z,99714.94
2023-04-24T09:52:58.253Z,99714.13
2023-04-24T09:55:26.271Z,99716.75
2023-04-24T09:57:55.441Z,99719.19
2023-04-24T10:00:27.787Z,99714.53
2023-04-24T10:03:02.205Z,99720.63
2023-04-24T10:05:33.692Z,99710.44
2023-04-24T10:08:05.486Z,99706.19
2023-04-24T10:10:33.588Z,99706.53
2023-04-24T10:13:01.539Z,99716.56
2023-04-24T10:15:28.482Z,99705.41
2023-04-24T10:17:55.093Z,99708.50
2023-04-24T10:20:23.971Z,99713.69
2023-04-24T10:22:53.194Z,99705.91
2023-04-24T10:25:21.851Z,99705.59
2023-04-24T10:27:49.244Z,99703.09
2023-04-24T10:30:16.716Z,99713.38
2023-04-24T10:32:43.382Z,99704.44
2023-04-24T10:35:11.120Z,99714.78
2023-04-24T10:37:40.536Z,99705.91
2023-04-24T10:40:09.356Z,99699.56
2023-04-24T10:42:40.335Z,99711.44
2023-04-24T10:45:22.394Z,99707.75
2023-04-24T10:47:57.646Z,99705.88
2023-04-24T10:50:24.206Z,99707.41
2023-04-24T10:52:55.648Z,99703.59
2023-04-24T10:55:43.571Z,99699.53
2023-04-24T10:58:10.495Z,99701.41
2023-04-24T11:00:41.465Z,99703.66
2023-04-24T11:03:24.560Z,99709.16
2023-04-24T11:05:54.316Z,99695.00
2023-04-24T11:08:27.986Z,99708.72
2023-04-24T11:11:03.508Z,99704.88
2023-04-24T11:13:54.837Z,99697.28
2023-04-24T11:16:24.239Z,99707.13
2023-04-24T11:18:55.228Z,99696.63
2023-04-24T11:21:23.304Z,99682.56
2023-04-24T11:23:49.754Z,99681.00
2023-04-24T11:26:22.343Z,99686.00
2023-04-24T11:28:50.140Z,99691.81
2023-04-24T11:31:52.295Z,99707.00
2023-04-24T11:34:19.574Z,99707.50
2023-04-24T11:36:49.245Z,99719.78
2023-04-24T11:39:16.289Z,99727.66
2023-04-24T11:42:17.445Z,57377.03
2023-04-24T11:45:48.864Z,57377.03
2023-04-24T11:49:18.013Z,57377.03
2023-04-24T11:52:43.999Z,57377.03
2023-04-24T11:56:18.057Z,57377.03
2023-04-24T11:59:44.226Z,57377.03
2023-04-24T12:03:19.374Z,57377.03
2023-04-24T12:07:03.009Z,57377.03
2023-04-24T12:10:29.087Z,57377.03
2023-04-24T12:13:55.373Z,57377.03
2023-04-24T12:17:26.930Z,57377.03
2023-04-24T12:21:15.123Z,57377.03
2023-04-24T12:25:01.862Z,57377.03
2023-04-24T12:27:33.495Z,99665.94
2023-04-24T12:30:05.745Z,99666.94
2023-04-24T12:32:32.564Z,99666.53
2023-04-24T12:34:59.230Z,99661.75
2023-04-24T12:37:27.309Z,99656.34
2023-04-24T12:40:13.538Z,99673.78
2023-04-24T12:42:45.314Z,99655.00
2023-04-24T12:45:13.212Z,99656.44
2023-04-24T12:47:40.946Z,99665.94
2023-04-24T12:50:09.273Z,99662.66
2023-04-24T12:52:35.661Z,99686.94
2023-04-24T12:55:02.512Z,99697.75
2023-04-24T12:57:30.722Z,99685.25
2023-04-24T12:59:58.494Z,99687.91
2023-04-24T13:02:26.992Z,99677.34
2023-04-24T13:04:53.993Z,99676.53
2023-04-24T13:07:20.377Z,99670.22
2023-04-24T13:09:46.947Z,99671.22
2023-04-24T13:12:13.926Z,99673.28
2023-04-24T13:14:40.326Z,99675.78
2023-04-24T13:17:06.761Z,99671.00
2023-04-24T13:19:41.072Z,99670.13
2023-04-24T13:22:08.034Z,99675.31
2023-04-24T13:24:34.470Z,99662.22
2023-04-24T13:27:01.749Z,99664.97
2023-04-24T13:29:28.150Z,99660.56
2023-04-24T13:31:56.097Z,99668.38
2023-04-24T13:34:23.900Z,99673.84
2023-04-24T13:36:54.885Z,99662.22
2023-04-24T13:39:22.038Z,99676.66
2023-04-24T13:41:49.253Z,99664.72
2023-04-24T13:44:20.354Z,99658.50
2023-04-24T13:46:49.595Z,99649.91
2023-04-24T13:49:16.637Z,99650.47
2023-04-24T13:51:44.333Z,99659.09
2023-04-24T13:54:10.853Z,99661.13
2023-04-24T13:56:37.267Z,99664.66
2023-04-24T13:59:03.790Z,99666.16
2023-04-24T14:01:30.232Z,99643.63
2023-04-24T14:03:57.103Z,99663.09
2023-04-24T14:06:24.117Z,99664.13
2023-04-24T14:08:51.376Z,99665.53
2023-04-24T14:11:19.128Z,99673.03
2023-04-24T14:13:46.624Z,99674.41
2023-04-24T14:16:13.681Z,99667.09
2023-04-24T14:18:40.138Z,99657.13
2023-04-24T14:21:06.627Z,99667.81
2023-04-24T14:23:33.307Z,99683.91
2023-04-24T14:26:00.386Z,99664.91
2023-04-24T14:28:27.499Z,99661.69
2023-04-24T14:30:54.342Z,99662.13
2023-04-24T14:33:20.747Z,99667.88
2023-04-24T14:35:47.179Z,99674.44
2023-04-24T14:38:13.576Z,99668.41
2023-04-24T14:43:10.236Z,99670.69
2023-04-24T14:45:37.835Z,99665.97
2023-04-24T14:48:04.511Z,99679.19
2023-04-24T14:50:31.046Z,99679.81
2023-04-24T14:52:58.600Z,99672.09
2023-04-24T14:55:27.005Z,99676.50
2023-04-24T14:57:53.707Z,99682.78
2023-04-24T15:00:21.172Z,99670.88
2023-04-24T15:02:47.820Z,99675.88
2023-04-24T15:05:14.756Z,99689.91
2023-04-24T15:07:42.611Z,99686.16
2023-04-24T15:10:09.841Z,99692.94
2023-04-24T15:12:36.332Z,99696.00
2023-04-24T15:15:02.880Z,99691.84
2023-04-24T15:17:29.350Z,99695.50
2023-04-24T15:19:55.732Z,99677.25
2023-04-24T15:22:22.099Z,99697.72
2023-04-24T15:24:48.496Z,99695.16
2023-04-24T15:27:14.903Z,99709.22
2023-04-24T15:29:41.296Z,99697.84
2023-04-24T15:32:10.029Z,99695.91
2023-04-24T15:34:36.784Z,99696.94
2023-04-24T15:37:03.447Z,99714.50
2023-04-24T15:39:29.819Z,99711.00
2023-04-24T15:41:56.424Z,99718.91
2023-04-24T15:44:23.363Z,99707.50
2023-04-24T15:46:49.746Z,99700.44
2023-04-24T15:49:16.294Z,99712.75
2023-04-24T15:51:42.676Z,99710.97
2023-04-24T15:54:09.017Z,99719.84
2023-04-24T15:56:37.006Z,99720.69
2023-04-24T15:59:04.065Z,99721.59
2023-04-24T16:01:31.458Z,99709.25
2023-04-24T16:03:58.088Z,99715.44
2023-04-24T16:06:24.618Z,99711.84
2023-04-24T16:08:51.178Z,99718.00
2023-04-24T16:11:17.605Z,99712.78
2023-04-24T16:13:44.034Z,99724.22
2023-04-24T16:16:11.304Z,99726.84
2023-04-24T16:18:37.800Z,99729.53
2023-04-24T16:21:04.638Z,99726.91
2023-04-24T16:23:31.141Z,99737.34
2023-04-24T16:25:57.557Z,99735.59
2023-04-24T16:28:23.911Z,99734.69
2023-04-24T16:30:50.482Z,99742.63
2023-04-24T16:33:16.878Z,99750.31
2023-04-24T16:35:44.251Z,99766.13
2023-04-24T16:38:11.335Z,99773.72
2023-04-24T16:40:37.902Z,99790.13
2023-04-24T16:43:04.349Z,99801.06
2023-04-24T16:45:30.751Z,99783.13
2023-04-24T16:47:57.333Z,99798.47
2023-04-24T16:50:23.790Z,99793.63
2023-04-24T16:52:50.332Z,99797.59
2023-04-24T16:55:16.909Z,99809.03
2023-04-24T16:57:43.321Z,99806.72
2023-04-24T17:00:10.990Z,99804.63
2023-04-24T17:02:37.452Z,99810.53
2023-04-24T17:05:04.053Z,99809.84
2023-04-24T17:07:31.013Z,99824.91
2023-04-24T17:09:57.430Z,99822.88
2023-04-24T17:12:23.859Z,99829.59
2023-04-24T17:14:50.307Z,99829.94
2023-04-24T17:17:16.697Z,99853.34
2023-04-24T17:19:43.078Z,99839.69
2023-04-24T17:22:09.434Z,99848.50
2023-04-24T17:24:36.178Z,99839.41
2023-04-24T17:27:12.092Z,99844.69
2023-04-24T17:29:41.964Z,99854.22
2023-04-24T17:32:08.860Z,99852.16
2023-04-24T17:34:35.316Z,99861.16
2023-04-24T17:37:02.123Z,99861.56
2023-04-24T17:39:28.508Z,99868.31
2023-04-24T17:41:54.886Z,99869.44
2023-04-24T17:44:21.286Z,99864.66
2023-04-24T17:46:47.762Z,99877.97
2023-04-24T17:49:14.128Z,99880.59
2023-04-24T17:51:40.875Z,99882.84
2023-04-24T17:54:07.248Z,99886.53
2023-04-24T17:56:33.765Z,99895.28
2023-04-24T17:59:00.146Z,99893.38
2023-04-24T18:01:28.365Z,99897.97
2023-04-24T18:03:55.101Z,99912.19
2023-04-24T18:06:21.892Z,99904.75
2023-04-24T18:08:48.450Z,99915.38
2023-04-24T18:11:15.004Z,99934.44
2023-04-24T18:13:41.453Z,99952.72
2023-04-24T18:16:07.882Z,99951.50
2023-04-24T18:18:34.282Z,99938.47
2023-04-24T18:21:00.715Z,99947.47
2023-04-24T18:23:27.136Z,99950.09
2023-04-24T18:25:53.500Z,99959.13
2023-04-24T18:28:19.850Z,99963.91
2023-04-24T18:30:46.901Z,99972.19
2023-04-24T18:33:13.254Z,99972.09
2023-04-24T18:35:39.750Z,99985.50
2023-04-24T18:38:06.185Z,99992.63
2023-04-24T18:40:32.557Z,100006.22
2023-04-24T18:42:59.013Z,100010.13
2023-04-24T18:45:26.120Z,100016.41
2023-04-24T18:47:52.678Z,100045.53
2023-04-24T18:50:19.433Z,100027.97
2023-04-24T18:52:45.792Z,100026.81
2023-04-24T18:55:12.220Z,100052.44
2023-04-24T18:57:38.645Z,100024.41
2023-04-24T19:00:06.102Z,100034.41
2023-04-24T19:02:33.680Z,100027.25
2023-04-24T19:05:00.376Z,100044.28
2023-04-24T19:07:26.729Z,100036.34
2023-04-24T19:09:53.137Z,100058.88
2023-04-24T19:12:21.641Z,100050.41
2023-04-24T19:14:49.131Z,100060.44
2023-04-24T19:17:18.267Z,100061.97
2023-04-24T19:19:44.639Z,100052.16
2023-04-24T19:22:11.013Z,100056.97
2023-04-24T19:24:37.397Z,100061.69
2023-04-24T19:27:03.763Z,100060.09
2023-04-24T19:29:30.281Z,100062.22
2023-04-24T19:31:58.505Z,100057.78
2023-04-24T19:34:25.243Z,100065.66
2023-04-24T19:36:51.652Z,100077.47
2023-04-24T19:39:18.043Z,100057.75
2023-04-24T19:41:44.444Z,100077.19
2023-04-24T19:44:10.831Z,100086.88
2023-04-24T19:46:37.379Z,100070.72
2023-04-24T19:49:03.891Z,100067.06
2023-04-24T19:51:32.368Z,100064.41
2023-04-24T19:53:59.459Z,100069.75
2023-04-24T19:56:25.971Z,100072.69
2023-04-24T19:58:52.359Z,100070.06
2023-04-24T20:01:18.742Z,100068.19
2023-04-24T20:03:45.365Z,100086.72
2023-04-24T20:06:11.822Z,100071.47
2023-04-24T20:08:39.235Z,100083.66
2023-04-24T20:11:06.164Z,100073.63
2023-04-24T20:13:32.997Z,100073.81
2023-04-24T20:15:59.961Z,100088.97
2023-04-24T20:18:26.523Z,100072.25
2023-04-24T20:20:59.464Z,100069.78
2023-04-24T20:23:26.821Z,100077.97
2023-04-24T20:25:58.066Z,100078.00
2023-04-24T20:28:26.193Z,100078.03
2023-04-24T20:30:52.850Z,100077.53
2023-04-24T20:33:20.239Z,100082.59
2023-04-24T20:35:46.722Z,100079.13
2023-04-24T20:38:13.250Z,100079.94
2023-04-24T20:40:53.857Z,100084.66
2023-04-24T20:43:29.607Z,100076.66
2023-04-24T20:45:57.804Z,100079.75
2023-04-24T20:48:24.586Z,100072.38
2023-04-24T20:50:53.537Z,100066.94
2023-04-24T20:53:20.899Z,100071.53
2023-04-24T20:55:47.724Z,100064.56
2023-04-24T20:58:14.281Z,100081.13
2023-04-24T21:00:40.716Z,100069.19
2023-04-24T21:03:07.122Z,100073.22
2023-04-24T21:05:33.569Z,100066.66
2023-04-24T21:07:59.926Z,100078.13
2023-04-24T21:10:26.454Z,100072.34
2023-04-24T21:12:53.010Z,100088.34
2023-04-24T21:15:19.395Z,100074.91
2023-04-24T21:17:46.065Z,100074.56
2023-04-24T21:20:13.313Z,100075.31
2023-04-24T21:22:39.709Z,100076.72
2023-04-24T21:25:06.657Z,100065.06
2023-04-24T21:27:33.321Z,100062.78
2023-04-24T21:29:59.845Z,100053.25
2023-04-24T21:32:26.873Z,100063.69
2023-04-24T21:34:53.326Z,100060.75
2023-04-24T21:37:19.727Z,100075.75
2023-04-24T21:39:46.101Z,100065.63
2023-04-24T21:42:12.465Z,100076.31
2023-04-24T21:44:38.889Z,100065.06
2023-04-24T21:47:05.646Z,100063.00
2023-04-24T21:49:32.048Z,100068.50
2023-04-24T21:51:58.427Z,100060.84
2023-04-24T21:54:24.807Z,100069.31
2023-04-24T21:56:51.309Z,100066.56
2023-04-24T21:59:18.000Z,100066.63
2023-04-24T22:01:44.490Z,100066.03
2023-04-24T22:04:11.152Z,100068.72
2023-04-24T22:06:38.181Z,100071.13
2023-04-24T22:09:05.754Z,100070.44
2023-04-24T22:11:32.148Z,100063.19
2023-04-24T22:13:58.503Z,100062.03
2023-04-24T22:16:25.151Z,100062.31
2023-04-24T22:18:55.297Z,100059.97
2023-04-24T22:21:22.641Z,100062.41
2023-04-24T22:23:49.421Z,100060.81
2023-04-24T22:26:16.009Z,100046.88
2023-04-24T22:28:42.391Z,100056.03
2023-04-24T22:31:09.192Z,100063.13
2023-04-24T22:33:35.733Z,100064.34
2023-04-24T22:36:02.638Z,100059.25
2023-04-24T22:38:29.022Z,100066.03
2023-04-24T22:40:55.592Z,100073.78
2023-04-24T22:43:22.030Z,100070.03
2023-04-24T22:45:48.464Z,100064.53
2023-04-24T22:48:14.850Z,100064.88
2023-04-24T22:50:42.315Z,100067.44
2023-04-24T22:53:08.720Z,100083.94
2023-04-24T22:55:35.883Z,100068.91
2023-04-24T22:58:02.321Z,100062.84
2023-04-24T23:00:28.938Z,100074.41
2023-04-24T23:02:55.733Z,100073.41
2023-04-24T23:05:22.564Z,100074.56
2023-04-24T23:07:48.973Z,100075.66
2023-04-24T23:10:15.351Z,100069.19
2023-04-24T23:12:41.962Z,100076.97
2023-04-24T23:15:09.675Z,100073.41
2023-04-24T23:17:36.091Z,100065.91
2023-04-24T23:20:03.166Z,100072.88
2023-04-24T23:22:29.865Z,100063.97
2023-04-24T23:24:56.230Z,100059.63
2023-04-24T23:27:22.643Z,100057.47
2023-04-24T23:29:49.024Z,100057.97
2023-04-24T23:32:15.537Z,100047.53
2023-04-24T23:34:42.081Z,100043.84
2023-04-24T23:37:08.465Z,100070.41
2023-04-24T23:39:34.837Z,100047.28
2023-04-24T23:42:02.764Z,100039.78
2023-04-24T23:44:30.337Z,100049.72
2023-04-24T23:46:57.424Z,100037.81
2023-04-24T23:49:23.848Z,100046.41
2023-04-24T23:51:50.433Z,100045.09
2023-04-24T23:54:16.824Z,100047.44
2023-04-24T23:56:43.281Z,100052.53
2023-04-24T23:59:09.689Z,100047.88
